Time;durP1;ratioP1;P1;durP2;ratioP2;P2;SDS_P1;SDS_P2;PMS_P1;PMS_P2;Temp;Humidity;BMP_temperature;BMP_pressure;BME280_temperature;BME280_humidity;BME280_pressure;Samples;Min_cycle;Max_cycle;Signal;HPM_P1;HPM_P2
2023/07/13 00:01:13;;;;;;;2.60;1.20;;;;;;;19.21;65.35;150868.13;4965179;28;20244;-63
2023/07/13 00:03:41;;;;;;;4.03;1.10;;;;;;;19.19;64.42;150864.34;4967705;28;20234;-63
2023/07/13 00:06:13;;;;;;;2.30;1.30;;;;;;;19.12;65.05;150846.81;4965224;28;20236;-63
2023/07/13 00:08:39;;;;;;;3.43;1.10;;;;;;;19.04;66.19;150828.06;4968257;28;20236;-63
2023/07/13 00:11:13;;;;;;;5.93;1.47;;;;;;;19.01;67.76;150820.53;4964790;28;20661;-63
2023/07/13 00:13:40;;;;;;;2.17;0.90;;;;;;;18.92;67.37;150799.25;4967756;28;20232;-63
2023/07/13 00:16:31;;;;;;;7.43;1.10;;;;;;;18.82;68.84;150774.19;4964929;28;20369;-63
2023/07/13 00:19:00;;;;;;;2.33;0.80;;;;;;;18.72;68.74;150751.66;4965107;28;20747;-63
2023/07/13 00:21:27;;;;;;;4.00;0.80;;;;;;;18.60;69.15;150721.63;4982286;28;20618;-63
2023/07/13 00:23:53;;;;;;;2.00;1.00;;;;;;;18.55;70.03;150710.34;4965046;28;20236;-63
2023/07/13 00:26:20;;;;;;;6.67;1.20;;;;;;;18.46;70.56;150686.56;4967213;28;20244;-63
2023/07/13 00:28:48;;;;;;;3.03;1.00;;;;;;;18.36;69.15;150662.81;4964553;28;20319;-63
2023/07/13 00:31:15;;;;;;;3.43;1.20;;;;;;;18.35;70.36;150660.31;4965588;28;20299;-63
2023/07/13 00:33:42;;;;;;;2.63;1.30;;;;;;;18.24;73.11;150634.00;4981610;28;20233;-63
2023/07/13 00:36:15;;;;;;;9.73;2.20;;;;;;;18.07;73.28;150593.97;4963173;28;20288;-63
2023/07/13 00:38:42;;;;;;;2.30;1.10;;;;;;;17.92;72.02;150556.44;4965815;28;20909;-63
2023/07/13 00:41:14;;;;;;;5.53;1.20;;;;;;;17.77;70.97;150520.13;4964205;28;20242;-63
2023/07/13 00:43:41;;;;;;;1.17;0.93;;;;;;;17.65;73.92;150492.59;4981973;28;20228;-63
2023/07/13 00:46:19;;;;;;;3.90;1.17;;;;;;;17.54;77.49;150465.06;4965111;28;20574;-62
2023/07/13 00:48:48;;;;;;;5.20;1.50;;;;;;;17.50;77.09;150455.06;4981882;28;20232;-62
2023/07/13 00:51:20;;;;;;;4.93;1.27;;;;;;;17.39;77.33;150430.09;4955449;28;20241;-63
2023/07/13 00:53:47;;;;;;;6.17;1.20;;;;;;;17.31;77.98;150408.81;4964074;28;20231;-63
2023/07/13 00:56:14;;;;;;;5.90;1.33;;;;;;;17.19;79.21;150381.28;4965923;28;20358;-63
2023/07/13 00:58:41;;;;;;;8.23;2.13;;;;;;;17.12;78.60;150363.78;4981955;28;20240;-63
2023/07/13 01:01:13;;;;;;;5.87;1.60;;;;;;;17.02;77.83;150338.75;4979101;28;20700;-63
2023/07/13 01:03:41;;;;;;;2.67;1.00;;;;;;;16.90;77.88;150309.97;4966472;28;20709;-63
2023/07/13 01:06:14;;;;;;;4.60;1.10;;;;;;;16.75;78.80;150274.97;4964127;28;20703;-63
2023/07/13 01:08:42;;;;;;;5.00;1.30;;;;;;;16.64;78.93;150248.72;4981830;28;20684;-62
2023/07/13 01:11:13;;;;;;;5.67;1.37;;;;;;;16.62;79.68;150242.44;4963300;28;20236;-62
2023/07/13 01:13:41;;;;;;;4.53;1.30;;;;;;;16.59;79.03;150236.22;4966411;28;20653;-62
2023/07/13 01:16:20;;;;;;;4.37;1.40;;;;;;;16.52;79.28;150218.72;4961935;28;20238;-62
2023/07/13 01:18:47;;;;;;;4.60;1.30;;;;;;;16.43;79.00;150196.22;4964235;28;20228;-62
2023/07/13 01:21:14;;;;;;;7.00;1.40;;;;;;;16.41;79.53;150192.50;4980481;28;20234;-62
2023/07/13 01:23:41;;;;;;;4.40;1.30;;;;;;;16.38;80.28;150186.22;4966509;28;20291;-62
2023/07/13 01:26:13;;;;;;;5.10;1.60;;;;;;;16.33;79.92;150173.72;4954583;28;20229;-62
2023/07/13 01:28:39;;;;;;;7.60;1.50;;;;;;;16.23;80.47;150150.00;4981140;28;20232;-62
2023/07/13 01:31:11;;;;;;;2.03;1.23;;;;;;;16.18;81.00;150137.50;4963779;28;20237;-62
2023/07/13 01:33:39;;;;;;;4.50;1.63;;;;;;;16.08;82.44;150112.50;4980663;28;20248;-62
2023/07/13 01:36:08;;;;;;;5.97;1.30;;;;;;;16.08;82.92;150112.50;4977837;28;20231;-62
2023/07/13 01:38:37;;;;;;;6.20;1.30;;;;;;;16.02;83.08;150097.50;4980958;28;20251;-62
2023/07/13 01:41:04;;;;;;;3.10;1.57;;;;;;;15.93;83.31;150077.50;4963210;28;20246;-62
2023/07/13 01:43:33;;;;;;;3.97;1.40;;;;;;;15.88;83.50;150063.78;4964847;28;20235;-62
2023/07/13 01:46:00;;;;;;;2.23;1.47;;;;;;;15.76;83.75;150036.22;4963804;28;20232;-62
2023/07/13 01:48:26;;;;;;;5.00;1.47;;;;;;;15.73;83.89;150027.47;4979915;28;20456;-62
2023/07/13 01:50:53;;;;;;;2.13;1.43;;;;;;;15.70;84.28;150021.22;4977683;28;21179;-62
2023/07/13 01:53:19;;;;;;;6.57;1.53;;;;;;;15.63;84.63;150004.97;4980980;28;20813;-62
2023/07/13 01:55:47;;;;;;;4.73;1.40;;;;;;;15.56;84.61;149987.47;4980966;28;20239;-62
2023/07/13 01:58:15;;;;;;;8.47;1.97;;;;;;;15.51;84.87;149974.97;4963503;28;20254;-63
2023/07/13 02:00:41;;;;;;;5.87;1.43;;;;;;;15.50;85.56;149972.47;4981142;28;20241;-63
2023/07/13 02:03:08;;;;;;;6.83;1.73;;;;;;;15.45;85.50;149961.25;4961678;28;20239;-63
2023/07/13 02:05:34;;;;;;;4.87;1.60;;;;;;;15.43;85.72;149954.97;4964167;28;20654;-62
2023/07/13 02:08:01;;;;;;;3.70;1.50;;;;;;;15.37;86.21;149940.03;4978550;28;20258;-62
2023/07/13 02:10:28;;;;;;;2.57;1.37;;;;;;;15.37;85.86;149940.03;4964728;28;21154;-62
2023/07/13 02:12:56;;;;;;;7.07;1.50;;;;;;;15.38;86.82;149942.50;4977551;28;20269;-62
2023/07/13 02:15:23;;;;;;;5.97;1.60;;;;;;;15.31;86.78;149926.28;4964408;28;20221;-62
2023/07/13 02:17:49;;;;;;;5.13;1.67;;;;;;;15.26;87.15;149913.78;4977984;28;20242;-63
2023/07/13 02:20:16;;;;;;;3.40;1.60;;;;;;;15.20;86.85;149901.28;4972449;28;20257;-61
2023/07/13 02:22:43;;;;;;;4.33;1.30;;;;;;;15.14;88.11;149886.31;4964284;28;20232;-62
2023/07/13 02:25:09;;;;;;;4.60;1.73;;;;;;;15.09;88.78;149872.59;4961809;28;20226;-62
2023/07/13 02:27:36;;;;;;;5.90;1.37;;;;;;;15.00;88.59;149851.31;4966010;28;20230;-62
2023/07/13 02:30:04;;;;;;;5.83;1.73;;;;;;;14.98;87.46;149846.31;4981697;28;20241;-62
2023/07/13 02:32:31;;;;;;;6.83;1.60;;;;;;;14.96;87.04;149842.59;4970691;28;20312;-62
2023/07/13 02:34:58;;;;;;;2.40;1.47;;;;;;;14.96;87.62;149842.59;4981672;28;20237;-62
2023/07/13 02:37:24;;;;;;;2.73;1.33;;;;;;;14.91;88.04;149831.34;4967242;28;20231;-62
2023/07/13 02:39:51;;;;;;;4.70;1.97;;;;;;;14.85;88.78;149815.13;4965151;28;20222;-62
2023/07/13 02:42:17;;;;;;;4.33;1.63;;;;;;;14.78;89.96;149797.63;4969930;28;20297;-62
2023/07/13 02:44:44;;;;;;;3.50;1.60;;;;;;;14.70;90.56;149780.16;4984439;28;20217;-62
2023/07/13 02:47:13;;;;;;;7.47;2.10;;;;;;;14.61;89.48;149757.63;4981394;28;20239;-62
2023/07/13 02:49:39;;;;;;;4.63;1.40;;;;;;;14.52;89.77;149736.41;4984389;28;20229;-62
2023/07/13 02:52:07;;;;;;;5.03;1.40;;;;;;;14.49;90.82;149727.66;4981513;28;20237;-62
2023/07/13 02:54:33;;;;;;;5.13;1.70;;;;;;;14.41;90.72;149708.94;4984130;28;20234;-62
2023/07/13 02:57:00;;;;;;;3.77;1.60;;;;;;;14.40;89.86;149706.47;4966939;28;20261;-62
2023/07/13 02:59:26;;;;;;;8.77;2.23;;;;;;;14.39;90.41;149703.97;4968091;28;20241;-62
2023/07/13 03:01:53;;;;;;;6.20;1.73;;;;;;;14.35;90.88;149695.19;4965057;28;20915;-62
2023/07/13 03:04:21;;;;;;;2.67;1.67;;;;;;;14.30;90.73;149682.75;4968665;28;20226;-62
2023/07/13 03:06:48;;;;;;;4.50;1.90;;;;;;;14.27;91.70;149675.25;4953955;28;20333;-62
2023/07/13 03:09:15;;;;;;;7.00;1.80;;;;;;;14.25;91.76;149671.50;4968009;28;20234;-62
2023/07/13 03:11:46;;;;;;;3.73;1.43;;;;;;;14.26;92.53;149674.00;4967553;28;20253;-62
2023/07/13 03:14:20;;;;;;;5.93;1.40;;;;;;;14.29;91.51;149681.47;4957670;28;20688;-62
2023/07/13 03:16:47;;;;;;;4.17;1.77;;;;;;;14.33;90.63;149690.19;4982052;28;20260;-62
2023/07/13 03:19:14;;;;;;;3.73;1.60;;;;;;;14.29;90.12;149681.47;4958457;28;20745;-62
2023/07/13 03:21:44;;;;;;;2.47;1.40;;;;;;;14.27;90.61;149675.25;4983555;28;20333;-62
2023/07/13 03:24:11;;;;;;;5.37;1.80;;;;;;;14.21;90.67;149661.50;4965591;28;20231;-62
2023/07/13 03:26:39;;;;;;;5.80;1.80;;;;;;;14.19;90.41;149655.28;4983707;28;20230;-62
2023/07/13 03:29:06;;;;;;;7.23;1.67;;;;;;;14.14;90.62;149645.31;4966231;28;20233;-62
2023/07/13 03:31:35;;;;;;;5.30;1.63;;;;;;;14.14;92.07;149645.31;5166420;23;20232;-63
2023/07/13 03:34:03;;;;;;;3.70;1.67;;;;;;;14.21;93.90;149661.50;4963362;28;20684;-62
2023/07/13 03:36:32;;;;;;;4.03;1.40;;;;;;;14.20;92.04;149659.00;4960461;28;20228;-62
2023/07/13 03:39:08;;;;;;;7.50;1.90;;;;;;;14.19;92.58;149656.50;4959926;28;20232;-62
2023/07/13 03:41:47;;;;;;;6.07;1.60;;;;;;;14.21;90.84;149660.28;4944026;28;20249;-62
2023/07/13 03:44:16;;;;;;;4.53;1.60;;;;;;;14.20;91.80;149657.78;4970777;28;20653;-62
2023/07/13 03:46:43;;;;;;;6.83;1.60;;;;;;;14.21;90.46;149660.28;4961469;28;20234;-62
2023/07/13 03:49:10;;;;;;;3.87;1.70;;;;;;;14.20;91.39;149657.78;4948456;28;20271;-62
2023/07/13 03:51:38;;;;;;;4.83;1.97;;;;;;;14.31;88.05;149686.47;4958860;28;20238;-62
2023/07/13 03:54:07;;;;;;;4.93;1.50;;;;;;;14.35;88.00;149695.19;4954562;28;20559;-62
2023/07/13 03:56:33;;;;;;;4.30;1.70;;;;;;;14.28;87.25;149677.75;4962821;28;20228;-62
2023/07/13 03:59:02;;;;;;;3.67;1.47;;;;;;;14.25;87.39;149670.28;4955327;28;20738;-62
2023/07/13 04:01:30;;;;;;;5.93;1.67;;;;;;;14.26;88.49;149672.75;4963381;28;20240;-62
2023/07/13 04:03:56;;;;;;;3.03;1.60;;;;;;;14.27;89.01;149676.50;4958739;28;20230;-62
2023/07/13 04:06:27;;;;;;;6.63;1.63;;;;;;;14.24;88.42;149667.78;4963403;28;20230;-62
2023/07/13 04:08:56;;;;;;;2.33;1.70;;;;;;;14.24;89.86;149667.78;4960551;28;20702;-62
2023/07/13 04:11:27;;;;;;;5.83;1.57;;;;;;;14.15;91.46;149647.81;4959091;28;20595;-62
2023/07/13 04:13:53;;;;;;;4.23;1.53;;;;;;;14.08;91.36;149630.31;4960313;28;20237;-62
2023/07/13 04:16:20;;;;;;;4.57;1.70;;;;;;;14.10;90.93;149634.03;4965554;28;20237;-62
2023/07/13 04:18:47;;;;;;;3.17;1.30;;;;;;;14.07;90.59;149626.56;4956194;28;20238;-62
2023/07/13 04:21:15;;;;;;;8.13;1.83;;;;;;;14.06;90.61;149624.06;4958765;28;20630;-62
2023/07/13 04:23:42;;;;;;;4.27;1.90;;;;;;;14.05;91.15;149622.81;4955975;28;20237;-62
2023/07/13 04:26:13;;;;;;;4.33;1.60;;;;;;;14.10;90.85;149634.03;4957234;28;20274;-62
2023/07/13 04:28:41;;;;;;;3.27;1.30;;;;;;;14.12;91.45;149639.03;4956516;28;20686;-62
2023/07/13 04:31:13;;;;;;;7.23;2.00;;;;;;;14.15;90.61;149646.53;4952908;28;20233;-63
2023/07/13 04:33:40;;;;;;;3.20;1.43;;;;;;;14.20;90.96;149657.78;4959625;28;20249;-63
2023/07/13 04:36:13;;;;;;;5.90;1.60;;;;;;;14.29;88.14;149681.47;4957565;28;20247;-63
2023/07/13 04:38:40;;;;;;;3.73;1.50;;;;;;;14.31;88.44;149686.47;4961280;28;20717;-63
2023/07/13 04:41:31;;;;;;;9.13;1.87;;;;;;;14.44;88.57;149716.44;4955944;28;20322;-63
2023/07/13 04:43:59;;;;;;;4.73;1.60;;;;;;;14.49;88.61;149728.94;4958941;28;20304;-63
2023/07/13 04:46:25;;;;;;;2.13;1.47;;;;;;;14.56;88.53;149745.13;4951751;28;20246;-63
2023/07/13 04:48:53;;;;;;;2.13;1.33;;;;;;;14.65;87.53;149766.41;4953864;28;20619;-63
2023/07/13 04:51:19;;;;;;;4.67;1.57;;;;;;;14.71;87.23;149782.66;4957696;28;20914;-63
2023/07/13 04:53:46;;;;;;;2.80;1.40;;;;;;;14.78;87.36;149797.63;4960760;28;20745;-63
2023/07/13 04:56:13;;;;;;;4.90;1.53;;;;;;;14.83;87.82;149811.41;4957726;28;20632;-63
2023/07/13 04:58:40;;;;;;;5.00;1.70;;;;;;;14.86;86.68;149818.84;4961560;28;20613;-63
2023/07/13 05:01:14;;;;;;;4.13;1.47;;;;;;;14.86;87.27;149818.84;4958155;28;20248;-63
2023/07/13 05:03:41;;;;;;;3.93;1.40;;;;;;;14.85;87.00;149815.13;4959549;28;20626;-63
2023/07/13 05:06:13;;;;;;;8.47;1.60;;;;;;;14.91;85.19;149830.13;4957935;28;20248;-63
2023/07/13 05:08:40;;;;;;;3.47;1.40;;;;;;;14.93;85.13;149835.09;4960607;28;20635;-63
2023/07/13 05:11:13;;;;;;;3.60;1.50;;;;;;;14.97;84.27;149845.09;4958053;28;20310;-63
2023/07/13 05:13:40;;;;;;;5.30;1.57;;;;;;;15.04;85.09;149862.59;4960834;28;20254;-63
2023/07/13 05:16:10;;;;;;;3.83;1.60;;;;;;;15.13;84.45;149882.56;4958075;28;20674;-63
2023/07/13 05:18:38;;;;;;;2.37;1.50;;;;;;;15.14;82.89;149886.31;4961051;28;20643;-63
2023/07/13 05:21:07;;;;;;;3.20;1.20;;;;;;;15.20;83.00;149901.28;4957820;28;20245;-63
2023/07/13 05:23:34;;;;;;;2.83;1.47;;;;;;;15.21;85.21;149902.56;4962034;28;20257;-63
2023/07/13 05:26:02;;;;;;;7.30;1.67;;;;;;;15.25;86.27;149912.56;4954522;28;20238;-63
2023/07/13 05:28:31;;;;;;;2.90;1.30;;;;;;;15.31;85.41;149927.53;4960155;28;20281;-63
2023/07/13 05:30:58;;;;;;;4.83;1.70;;;;;;;15.36;85.42;149938.78;4956532;28;20618;-63
2023/07/13 05:33:25;;;;;;;2.27;1.40;;;;;;;15.45;85.28;149961.25;4957559;28;20248;-63
2023/07/13 05:35:53;;;;;;;5.20;1.27;;;;;;;15.59;85.29;149993.75;4957754;28;20317;-63
2023/07/13 05:38:20;;;;;;;2.90;1.17;;;;;;;15.77;84.37;150037.47;4958013;28;20242;-63
2023/07/13 05:40:48;;;;;;;2.53;1.33;;;;;;;15.96;83.61;150082.50;4959400;28;20244;-63
2023/07/13 05:43:15;;;;;;;4.70;1.60;;;;;;;16.11;82.56;150120.00;4957762;28;20223;-63
2023/07/13 05:45:42;;;;;;;3.40;1.70;;;;;;;16.25;82.09;150152.50;4961089;28;20329;-63
2023/07/13 05:48:08;;;;;;;3.17;1.40;;;;;;;16.37;81.35;150183.72;4951414;28;20307;-63
2023/07/13 05:50:35;;;;;;;3.53;1.30;;;;;;;16.56;80.69;150227.44;4955507;28;20229;-63
2023/07/13 05:53:03;;;;;;;3.60;1.30;;;;;;;16.75;79.35;150273.75;4955547;28;20236;-63
2023/07/13 05:55:30;;;;;;;5.73;1.40;;;;;;;16.95;78.75;150323.75;4960573;28;20310;-63
2023/07/13 05:57:57;;;;;;;3.83;1.27;;;;;;;17.25;78.06;150396.28;4957045;28;20239;-63
2023/07/13 06:00:24;;;;;;;2.10;1.17;;;;;;;17.53;77.10;150463.84;4958211;28;20714;-63
2023/07/13 06:02:51;;;;;;;2.90;1.47;;;;;;;17.79;76.12;150525.13;4957741;28;20227;-63
2023/07/13 06:05:17;;;;;;;3.77;1.20;;;;;;;17.84;75.40;150537.63;4958460;28;20323;-63
2023/07/13 06:07:44;;;;;;;3.47;1.20;;;;;;;17.89;75.01;150548.91;4958428;28;20294;-63
2023/07/13 06:10:12;;;;;;;3.40;1.33;;;;;;;17.90;75.01;150551.41;4959747;28;20778;-62
2023/07/13 06:12:39;;;;;;;5.13;1.40;;;;;;;18.06;74.48;150590.22;4961664;28;20281;-63
2023/07/13 06:15:06;;;;;;;7.80;1.50;;;;;;;18.14;74.51;150610.25;4953771;28;20249;-63
2023/07/13 06:17:33;;;;;;;6.07;1.40;;;;;;;18.17;74.10;150617.75;4950153;28;20290;-63
2023/07/13 06:20:00;;;;;;;5.13;1.60;;;;;;;18.22;74.42;150630.28;4951249;28;20328;-63
2023/07/13 06:22:26;;;;;;;2.97;1.67;;;;;;;18.27;74.87;150642.78;4960421;28;20253;-62
2023/07/13 06:24:53;;;;;;;6.53;2.37;;;;;;;18.38;73.23;150669.06;4955258;28;20234;-62
2023/07/13 06:27:21;;;;;;;9.43;1.60;;;;;;;18.52;73.91;150701.59;4955681;28;20526;-62
2023/07/13 06:29:47;;;;;;;6.57;1.60;;;;;;;18.63;73.35;150729.13;4954965;28;20229;-63
2023/07/13 06:32:14;;;;;;;3.33;1.40;;;;;;;18.64;72.97;150730.38;4956616;28;20241;-63
2023/07/13 06:34:41;;;;;;;5.20;1.63;;;;;;;18.58;73.48;150716.63;4959268;28;20749;-63
2023/07/13 06:37:07;;;;;;;3.47;1.53;;;;;;;18.66;73.70;150736.66;4951137;28;23290;-63
2023/07/13 06:39:34;;;;;;;4.70;1.70;;;;;;;18.81;73.92;150771.69;4958616;28;20242;-63
2023/07/13 06:42:00;;;;;;;3.90;1.40;;;;;;;19.00;72.96;150818.03;4957527;28;20714;-63
2023/07/13 06:44:28;;;;;;;6.07;1.50;;;;;;;19.13;72.90;150850.59;4959597;28;20228;-63
2023/07/13 06:46:55;;;;;;;4.17;1.63;;;;;;;19.33;74.26;150898.19;4956582;28;20237;-63
2023/07/13 06:49:22;;;;;;;3.37;1.30;;;;;;;19.51;73.58;150942.00;4959571;28;20302;-63
2023/07/13 06:51:48;;;;;;;6.20;1.67;;;;;;;19.61;72.61;150967.03;4954002;28;20237;-63
2023/07/13 06:54:15;;;;;;;4.40;1.60;;;;;;;19.61;73.70;150965.75;4957002;28;20237;-63
2023/07/13 06:56:41;;;;;;;5.27;1.63;;;;;;;19.42;73.44;150920.72;4960453;28;20237;-63
2023/07/13 06:59:08;;;;;;;5.20;1.80;;;;;;;19.33;72.74;150899.41;4952553;28;20329;-63
2023/07/13 07:01:36;;;;;;;7.03;1.70;;;;;;;19.45;71.46;150928.25;4952944;28;20328;-63
2023/07/13 07:04:04;;;;;;;6.33;1.60;;;;;;;19.65;70.65;150974.56;4955035;28;20644;-63
2023/07/13 07:06:30;;;;;;;4.90;1.50;;;;;;;19.72;72.15;150993.31;4961596;28;20237;-63
2023/07/13 07:08:57;;;;;;;3.77;1.30;;;;;;;19.93;69.75;151042.25;4954169;28;20588;-63
2023/07/13 07:11:26;;;;;;;4.27;1.60;;;;;;;20.15;68.27;151096.09;4960860;28;20251;-63
2023/07/13 07:13:54;;;;;;;6.10;1.67;;;;;;;20.18;69.36;151104.84;4956020;28;20226;-63
2023/07/13 07:16:20;;;;;;;2.13;1.50;;;;;;;20.40;67.54;151156.22;4957169;28;20323;-63
2023/07/13 07:18:49;;;;;;;6.53;1.60;;;;;;;20.43;65.76;151164.97;4962040;28;20276;-63
2023/07/13 07:21:16;;;;;;;4.87;2.00;;;;;;;20.31;63.28;151134.91;4957724;28;20285;-63
2023/07/13 07:23:43;;;;;;;5.27;1.90;;;;;;;20.26;62.29;151122.38;4960512;28;20227;-63
2023/07/13 07:26:13;;;;;;;7.23;1.87;;;;;;;20.41;62.05;151158.72;4959757;28;20229;-63
2023/07/13 07:28:40;;;;;;;3.33;1.60;;;;;;;20.44;61.36;151167.47;4960107;28;20251;-63
2023/07/13 07:31:31;;;;;;;5.27;1.77;;;;;;;20.42;61.95;151162.47;4959925;28;20279;-64
2023/07/13 07:33:59;;;;;;;6.50;2.00;;;;;;;20.51;62.14;151183.78;4954293;28;20557;-65
2023/07/13 07:36:25;;;;;;;5.83;2.30;;;;;;;20.68;61.58;151223.84;4959829;28;20229;-64
2023/07/13 07:38:52;;;;;;;5.07;1.97;;;;;;;20.83;60.24;151261.50;4957555;28;20221;-66
2023/07/13 07:41:19;;;;;;;4.17;1.97;;;;;;;20.94;60.66;151287.84;4960953;28;20233;-65
2023/07/13 07:43:45;;;;;;;9.03;1.77;;;;;;;20.67;60.31;151222.63;4963038;28;20321;-64
2023/07/13 07:46:13;;;;;;;7.47;2.10;;;;;;;20.70;59.74;151228.88;4955826;28;20750;-63
2023/07/13 07:48:40;;;;;;;6.27;1.80;;;;;;;20.74;60.88;151240.16;4961993;28;20233;-64
2023/07/13 07:51:33;;;;;;;8.17;1.97;;;;;;;21.04;59.33;151312.91;4955364;28;20432;-65
2023/07/13 07:53:59;;;;;;;5.83;1.70;;;;;;;21.21;58.97;151352.97;4960061;28;20741;-65
2023/07/13 07:56:26;;;;;;;5.40;2.13;;;;;;;21.33;59.02;151383.06;4953671;28;20234;-64
2023/07/13 07:58:53;;;;;;;4.97;2.00;;;;;;;21.41;58.82;151400.63;4957993;28;20223;-64
2023/07/13 08:01:19;;;;;;;4.20;1.87;;;;;;;21.51;57.48;151426.97;4957228;28;20252;-64
2023/07/13 08:03:46;;;;;;;7.27;1.67;;;;;;;21.59;58.05;151444.53;4962576;28;20610;-64
2023/07/13 08:06:13;;;;;;;5.63;1.83;;;;;;;21.71;58.73;151474.66;4960675;28;20258;-64
2023/07/13 08:08:41;;;;;;;5.83;1.60;;;;;;;21.71;56.16;151473.38;4963310;28;20242;-64
2023/07/13 08:11:13;;;;;;;3.83;1.77;;;;;;;21.85;55.15;151508.50;4950849;28;20250;-65
2023/07/13 08:13:39;;;;;;;6.60;1.80;;;;;;;21.85;53.75;151507.22;4958902;28;20226;-64
2023/07/13 08:16:11;;;;;;;4.73;1.70;;;;;;;21.80;54.70;151497.19;4956368;28;20240;-64
2023/07/13 08:18:38;;;;;;;2.40;1.60;;;;;;;22.06;54.39;151558.66;4959924;28;20233;-64
2023/07/13 08:21:05;;;;;;;6.30;2.10;;;;;;;22.08;51.73;151564.91;4955721;28;20384;-65
2023/07/13 08:23:32;;;;;;;5.50;1.30;;;;;;;21.94;52.12;151531.06;4959146;28;20239;-65
2023/07/13 08:26:01;;;;;;;3.83;1.70;;;;;;;21.93;55.08;151527.28;4957880;28;20666;-65
2023/07/13 08:28:29;;;;;;;3.53;1.50;;;;;;;22.16;53.99;151582.47;4952797;28;20239;-63
2023/07/13 08:30:55;;;;;;;6.83;1.87;;;;;;;21.99;55.98;151541.09;4954079;28;20231;-65
2023/07/13 08:33:23;;;;;;;4.73;1.70;;;;;;;22.10;53.58;151569.91;4964600;28;20242;-66
2023/07/13 08:35:50;;;;;;;4.83;1.60;;;;;;;22.18;52.68;151588.75;4957421;28;20233;-66
2023/07/13 08:38:18;;;;;;;8.57;1.80;;;;;;;22.22;53.38;151597.50;4959586;28;20237;-66
2023/07/13 08:40:45;;;;;;;6.30;1.77;;;;;;;22.41;51.33;151645.19;4959742;28;20224;-65
2023/07/13 08:43:17;;;;;;;7.17;1.80;;;;;;;22.08;51.42;151564.91;4958752;28;20303;-65
2023/07/13 08:45:46;;;;;;;6.33;1.57;;;;;;;22.14;53.16;151577.44;4963311;28;20235;-65
2023/07/13 08:48:19;;;;;;;3.70;1.50;;;;;;;22.35;52.82;151630.13;4947499;28;20640;-65
2023/07/13 08:50:52;;;;;;;6.27;1.90;;;;;;;22.15;51.22;151579.97;4961857;28;20718;-65
2023/07/13 08:53:20;;;;;;;5.13;1.77;;;;;;;22.11;50.94;151571.19;4958980;28;20239;-65
2023/07/13 08:55:47;;;;;;;5.60;1.40;;;;;;;22.45;49.30;151652.75;4962743;28;20239;-65
2023/07/13 08:58:18;;;;;;;6.33;1.87;;;;;;;22.27;48.19;151611.28;4959461;28;20227;-65
2023/07/13 09:00:54;;;;;;;7.67;1.50;;;;;;;22.47;49.55;151657.78;4961033;28;20236;-65
2023/07/13 09:03:24;;;;;;;3.40;1.33;;;;;;;22.48;49.97;151660.28;4956713;28;20242;-65
2023/07/13 09:05:55;;;;;;;4.83;1.47;;;;;;;22.69;46.99;151711.69;4955830;28;20243;-65
2023/07/13 09:08:46;;;;;;;4.70;1.73;;;;;;;22.82;46.63;151744.31;4955924;28;20286;-65
2023/07/13 09:11:24;;;;;;;3.30;1.27;;;;;;;22.93;47.57;151769.41;4957348;28;20225;-65
2023/07/13 09:14:01;;;;;;;4.63;1.33;;;;;;;22.99;46.69;151785.69;4957632;28;20220;-65
2023/07/13 09:16:28;;;;;;;2.20;1.13;;;;;;;23.10;44.72;151810.78;4958906;28;20286;-65
2023/07/13 09:19:01;;;;;;;2.77;1.27;;;;;;;23.37;44.71;151876.09;4956408;28;20232;-65
2023/07/13 09:21:32;;;;;;;5.23;1.27;;;;;;;23.38;44.50;151879.84;4960526;28;20959;-65
2023/07/13 09:24:02;;;;;;;3.33;1.13;;;;;;;23.37;44.82;151876.09;4955300;28;20226;-65
2023/07/13 09:26:33;;;;;;;1.70;0.90;;;;;;;23.55;41.80;151920.00;4958230;28;20297;-65
2023/07/13 09:29:13;;;;;;;7.87;1.70;;;;;;;23.62;41.35;151936.34;4957376;28;20233;-65
2023/07/13 09:31:45;;;;;;;3.63;1.10;;;;;;;23.23;42.82;151843.47;4958776;28;20634;-65
2023/07/13 09:34:13;;;;;;;4.20;1.37;;;;;;;23.34;43.86;151869.78;4958384;28;20243;-65
2023/07/13 09:36:40;;;;;;;4.23;1.33;;;;;;;23.32;43.79;151864.78;4959773;28;20589;-65
2023/07/13 09:39:26;;;;;;;2.57;1.20;;;;;;;23.52;44.79;151913.75;4955110;28;20235;-65
2023/07/13 09:41:58;;;;;;;4.43;1.10;;;;;;;23.38;42.97;151878.59;4955385;28;20237;-65
2023/07/13 09:44:32;;;;;;;4.40;1.27;;;;;;;23.42;43.19;151889.88;4959695;28;20238;-65
2023/07/13 09:46:59;;;;;;;3.63;1.30;;;;;;;23.42;45.09;151888.66;4954597;28;20288;-65
2023/07/13 09:49:26;;;;;;;4.00;1.13;;;;;;;23.27;42.55;151852.28;4960661;28;20234;-65
2023/07/13 09:52:00;;;;;;;4.97;1.30;;;;;;;23.59;43.81;151931.31;4946568;28;20230;-65
2023/07/13 09:54:27;;;;;;;4.63;1.20;;;;;;;23.42;42.56;151889.88;4962430;28;20241;-65
2023/07/13 09:56:57;;;;;;;4.17;1.20;;;;;;;23.37;44.28;151877.31;4958161;28;20690;-65
2023/07/13 09:59:28;;;;;;;3.40;1.30;;;;;;;23.28;43.31;151856.00;4960490;28;20234;-65
2023/07/13 10:01:56;;;;;;;8.20;2.13;;;;;;;23.23;45.61;151843.47;4953653;28;20712;-65
2023/07/13 10:04:32;;;;;;;2.20;1.20;;;;;;;23.32;44.28;151864.78;4958680;28;20232;-65
2023/07/13 10:07:07;;;;;;;3.03;1.20;;;;;;;23.32;43.84;151864.78;4951737;28;20234;-65
2023/07/13 10:09:33;;;;;;;2.83;1.13;;;;;;;23.58;41.82;151928.81;4959148;28;20303;-65
2023/07/13 10:12:00;;;;;;;5.17;1.20;;;;;;;23.34;41.83;151869.78;4953166;28;20285;-65
2023/07/13 10:14:27;;;;;;;5.87;1.50;;;;;;;23.02;43.40;151792.00;4954704;28;20253;-65
2023/07/13 10:17:02;;;;;;;6.43;1.30;;;;;;;22.96;43.04;151778.16;4955172;28;20240;-65
2023/07/13 10:19:32;;;;;;;4.77;1.37;;;;;;;23.10;44.66;151812.06;4958142;28;20324;-66
2023/07/13 10:22:01;;;;;;;4.20;1.30;;;;;;;23.50;41.49;151908.72;4957973;28;20274;-65
2023/07/13 10:24:31;;;;;;;2.83;1.00;;;;;;;23.62;41.85;151936.34;4961804;28;20234;-66
2023/07/13 10:27:04;;;;;;;6.53;1.13;;;;;;;23.69;42.52;151953.91;4953533;28;20232;-66
2023/07/13 10:29:36;;;;;;;4.20;1.50;;;;;;;23.87;42.58;151999.06;4959383;28;20232;-66
2023/07/13 10:32:10;;;;;;;4.87;1.20;;;;;;;23.87;42.57;151999.06;4956255;28;20312;-66
2023/07/13 10:34:37;;;;;;;11.93;1.60;;;;;;;24.27;40.83;152095.81;4961267;28;20233;-66
2023/07/13 10:37:08;;;;;;;5.47;1.07;;;;;;;24.52;41.07;152156.03;4956150;28;20233;-66
2023/07/13 10:39:36;;;;;;;2.83;1.20;;;;;;;24.58;41.27;152171.09;4958187;28;20235;-66
2023/07/13 10:42:07;;;;;;;3.67;1.10;;;;;;;25.13;38.08;152304.28;4955895;28;20782;-66
2023/07/13 10:44:34;;;;;;;2.83;1.00;;;;;;;25.14;39.20;152305.50;4960154;28;20238;-66
2023/07/13 10:47:04;;;;;;;4.73;1.00;;;;;;;25.17;36.35;152314.31;4954086;28;20236;-66
2023/07/13 10:49:35;;;;;;;3.47;1.20;;;;;;;24.91;36.72;152250.25;4963605;28;20299;-66
2023/07/13 10:52:02;;;;;;;3.57;1.00;;;;;;;25.02;37.85;152276.66;4957354;28;20556;-66
2023/07/13 10:54:32;;;;;;;3.90;1.10;;;;;;;25.12;36.04;152301.78;4962633;28;20236;-66
2023/07/13 10:57:17;;;;;;;4.03;1.27;;;;;;;24.78;35.66;152217.63;4959917;28;20257;-66
2023/07/13 10:59:47;;;;;;;2.60;1.17;;;;;;;24.75;37.23;152211.34;4959912;28;20232;-66
2023/07/13 11:02:23;;;;;;;4.33;1.10;;;;;;;24.74;37.57;152208.81;4959534;28;20249;-66
2023/07/13 11:04:54;;;;;;;3.47;1.20;;;;;;;24.97;36.83;152264.09;4960942;28;20316;-66
2023/07/13 11:07:22;;;;;;;3.20;1.13;;;;;;;25.25;38.17;152331.91;4962354;28;20229;-66
2023/07/13 11:09:53;;;;;;;9.13;2.03;;;;;;;25.29;38.37;152343.19;4959837;28;20773;-66
2023/07/13 11:12:52;;;;;;;5.97;1.27;;;;;;;24.81;37.30;152226.41;4962082;28;20239;-66
2023/07/13 11:15:33;;;;;;;4.03;1.57;;;;;;;24.71;37.87;152201.25;4962551;28;20244;-66
2023/07/13 11:18:04;;;;;;;3.37;1.40;;;;;;;24.83;36.89;152231.44;4957938;28;20281;-66
2023/07/13 11:20:39;;;;;;;3.13;1.40;;;;;;;24.89;36.35;152245.28;4976105;28;20702;-66
2023/07/13 11:23:28;;;;;;;3.87;1.60;;;;;;;24.83;37.08;152231.44;4960336;28;20230;-66
2023/07/13 11:25:55;;;;;;;4.70;1.30;;;;;;;24.64;36.28;152183.66;4946519;28;20237;-66
2023/07/13 11:28:25;;;;;;;3.17;1.30;;;;;;;24.61;36.80;152177.41;4951892;28;20706;-66
2023/07/13 11:31:03;;;;;;;4.57;1.20;;;;;;;24.56;36.33;152164.84;4959866;28;20248;-66
2023/07/13 11:33:50;;;;;;;4.60;1.33;;;;;;;25.09;35.74;152292.94;4958662;28;20616;-66